createdAt,value
2023-02-14T00:01:23.512Z,4.20
2023-02-14T00:03:50.503Z,4.20
2023-02-14T00:06:17.632Z,4.20
2023-02-14T00:08:45.067Z,4.20
2023-02-14T00:11:12.853Z,4.10
2023-02-14T00:13:39.752Z,4.10
2023-02-14T00:16:06.962Z,4.10
2023-02-14T00:18:52.983Z,4.10
2023-02-14T00:21:19.894Z,4.10
2023-02-14T00:23:46.930Z,4.00
2023-02-14T00:26:15.150Z,4.00
2023-02-14T00:28:42.303Z,4.00
2023-02-14T00:31:09.573Z,3.90
2023-02-14T00:33:36.577Z,3.80
2023-02-14T00:36:05.067Z,3.70
2023-02-14T00:38:32.013Z,3.70
2023-02-14T00:40:59.465Z,3.80
2023-02-14T00:43:26.665Z,3.90
2023-02-14T00:45:53.639Z,3.90
2023-02-14T00:48:20.696Z,3.90
2023-02-14T00:50:47.783Z,3.80
2023-02-14T00:53:14.777Z,3.80
2023-02-14T00:55:41.768Z,3.70
2023-02-14T00:58:08.720Z,3.70
2023-02-14T01:00:35.760Z,3.70
2023-02-14T01:03:03.018Z,3.70
2023-02-14T01:05:29.976Z,3.70
2023-02-14T01:07:56.904Z,3.60
2023-02-14T01:10:23.820Z,3.60
2023-02-14T01:12:50.725Z,3.70
2023-02-14T01:15:17.697Z,3.80
2023-02-14T01:17:44.790Z,3.90
2023-02-14T01:20:11.880Z,3.80
2023-02-14T01:22:38.894Z,3.80
2023-02-14T01:25:06.021Z,3.70
2023-02-14T01:27:33.480Z,3.70
2023-02-14T01:30:00.547Z,3.80
2023-02-14T01:32:30.835Z,3.70
2023-02-14T01:34:57.741Z,3.80
2023-02-14T01:37:24.724Z,3.80
2023-02-14T01:39:51.879Z,3.70
2023-02-14T01:42:18.853Z,3.70
2023-02-14T01:44:45.891Z,3.60
2023-02-14T01:47:12.810Z,3.60
2023-02-14T01:49:41.893Z,3.60
2023-02-14T01:52:18.579Z,3.60
2023-02-14T01:54:54.037Z,3.50
2023-02-14T01:57:21.425Z,3.60
2023-02-14T01:59:54.334Z,3.50
2023-02-14T02:02:24.126Z,3.50
2023-02-14T02:04:52.888Z,3.50
2023-02-14T02:07:23.803Z,3.50
2023-02-14T02:09:56.095Z,3.60
2023-02-14T02:12:23.068Z,3.60
2023-02-14T02:14:51.094Z,3.50
2023-02-14T02:17:44.335Z,3.50
2023-02-14T02:20:45.150Z,3.50
2023-02-14T02:23:34.021Z,3.50
2023-02-14T02:26:42.151Z,3.50
2023-02-14T02:29:27.388Z,3.60
2023-02-14T02:32:28.298Z,3.60
2023-02-14T02:35:12.451Z,3.60
2023-02-14T02:38:01.254Z,3.60
2023-02-14T02:40:40.455Z,3.50
2023-02-14T02:43:22.514Z,3.40
2023-02-14T02:46:44.601Z,3.50
2023-02-14T02:49:54.243Z,3.40
2023-02-14T02:52:59.401Z,3.40
2023-02-14T02:55:51.171Z,3.30
2023-02-14T02:58:19.860Z,3.40
2023-02-14T03:00:47.652Z,3.40
2023-02-14T03:03:33.277Z,3.40
2023-02-14T03:06:00.483Z,3.20
2023-02-14T03:08:27.360Z,3.30
2023-02-14T03:10:54.586Z,3.20
2023-02-14T03:13:36.416Z,3.30
2023-02-14T03:16:26.029Z,3.20
2023-02-14T03:19:50.695Z,3.10
2023-02-14T03:22:48.893Z,3.00
2023-02-14T03:25:31.544Z,3.00
2023-02-14T03:28:25.560Z,3.00
2023-02-14T03:31:01.868Z,2.90
2023-02-14T03:34:00.665Z,3.00
2023-02-14T03:36:31.636Z,3.00
2023-02-14T03:39:16.940Z,3.10
2023-02-14T03:41:59.766Z,3.00
2023-02-14T03:44:28.531Z,3.00
2023-02-14T03:46:58.884Z,3.00
2023-02-14T03:49:29.464Z,3.00
2023-02-14T03:51:56.614Z,2.90
2023-02-14T03:54:23.525Z,2.90
2023-02-14T03:56:52.826Z,2.90
2023-02-14T03:59:22.835Z,2.90
2023-02-14T04:01:51.049Z,2.80
2023-02-14T04:04:20.448Z,2.70
2023-02-14T04:06:47.730Z,2.60
2023-02-14T04:09:14.642Z,2.40
2023-02-14T04:11:46.448Z,2.40
2023-02-14T04:14:13.577Z,2.30
2023-02-14T04:16:59.177Z,2.40
2023-02-14T04:19:26.143Z,2.40
2023-02-14T04:21:53.258Z,2.20
2023-02-14T04:24:20.402Z,2.20
2023-02-14T04:26:54.307Z,2.30
2023-02-14T04:29:21.460Z,2.30
2023-02-14T04:31:49.214Z,2.30
2023-02-14T04:34:16.221Z,2.40
2023-02-14T04:36:43.184Z,2.30
2023-02-14T04:39:10.074Z,2.30
2023-02-14T04:41:36.991Z,2.30
2023-02-14T04:44:03.941Z,2.30
2023-02-14T06:03:03.792Z,1.70
2023-02-14T06:05:30.858Z,1.60
2023-02-14T06:07:57.910Z,1.50
2023-02-14T06:10:25.963Z,1.60
2023-02-14T06:12:53.841Z,1.50
2023-02-14T06:15:21.781Z,1.50
2023-02-14T06:17:56.568Z,1.50
2023-02-14T06:20:24.507Z,1.60
2023-02-14T06:22:53.235Z,1.50
2023-02-14T06:25:21.152Z,1.50
2023-02-14T06:27:49.457Z,1.50
2023-02-14T06:30:17.957Z,1.40
2023-02-14T06:32:45.217Z,1.40
2023-02-14T06:35:13.786Z,1.50
2023-02-14T06:37:42.370Z,1.40
2023-02-14T06:40:11.841Z,1.40
2023-02-14T06:42:39.260Z,1.40
2023-02-14T06:45:07.090Z,1.50
2023-02-14T06:47:35.187Z,1.50
2023-02-14T06:50:05.229Z,1.50
2023-02-14T06:52:34.071Z,1.40
2023-02-14T06:55:01.431Z,1.40
2023-02-14T06:57:28.700Z,1.40
2023-02-14T06:59:56.076Z,1.40
2023-02-14T07:02:25.029Z,1.40
2023-02-14T07:04:52.636Z,1.60
2023-02-14T07:07:20.752Z,1.50
2023-02-14T07:09:48.158Z,1.50
2023-02-14T07:12:15.516Z,1.50
2023-02-14T07:14:44.898Z,1.50
2023-02-14T07:17:15.251Z,1.50
2023-02-14T07:19:42.622Z,1.50
2023-02-14T07:22:09.893Z,1.50
2023-02-14T07:24:37.291Z,1.60
2023-02-14T07:27:04.469Z,1.60
2023-02-14T07:29:31.627Z,1.60
2023-02-14T07:31:59.080Z,1.60
2023-02-14T07:34:27.494Z,1.60
2023-02-14T07:36:54.604Z,1.60
2023-02-14T07:39:21.801Z,1.60
2023-02-14T07:41:49.472Z,1.50
2023-02-14T07:44:16.968Z,1.50
2023-02-14T07:46:44.131Z,1.50
2023-02-14T07:49:12.105Z,1.50
2023-02-14T07:51:39.200Z,1.60
2023-02-14T07:54:06.428Z,1.70
2023-02-14T07:56:33.477Z,1.70
2023-02-14T07:59:00.548Z,1.80
2023-02-14T08:01:27.680Z,1.80
2023-02-14T08:03:54.718Z,1.90
2023-02-14T08:06:22.138Z,1.90
2023-02-14T08:08:49.497Z,1.90
2023-02-14T08:11:36.587Z,1.90
2023-02-14T08:14:05.328Z,1.90
2023-02-14T08:16:35.514Z,1.90
2023-02-14T08:19:09.868Z,1.90
2023-02-14T08:21:36.881Z,2.00
2023-02-14T08:24:04.272Z,2.00
2023-02-14T08:26:31.735Z,2.00
2023-02-14T08:28:58.873Z,2.10
2023-02-14T08:31:35.525Z,2.20
2023-02-14T08:34:03.681Z,2.20
2023-02-14T08:36:30.719Z,2.20
2023-02-14T08:38:57.956Z,2.30
2023-02-14T08:41:25.170Z,2.40
2023-02-14T08:43:52.390Z,2.40
2023-02-14T08:46:19.631Z,2.50
2023-02-14T08:48:46.718Z,2.50
2023-02-14T08:51:15.079Z,2.60
2023-02-14T08:53:43.379Z,2.70
2023-02-14T08:56:13.472Z,2.80
2023-02-14T08:58:41.142Z,2.90
2023-02-14T09:01:10.529Z,3.10
2023-02-14T09:03:38.602Z,3.30
2023-02-14T09:06:14.148Z,3.60
2023-02-14T09:08:41.777Z,3.90
2023-02-14T09:11:24.389Z,4.20
2023-02-14T09:13:56.095Z,4.40
2023-02-14T09:16:23.710Z,4.70
2023-02-14T09:18:52.730Z,4.80
2023-02-14T09:21:23.550Z,5.00
2023-02-14T09:23:50.510Z,5.40
2023-02-14T09:26:18.033Z,5.30
2023-02-14T09:28:44.993Z,5.60
2023-02-14T09:31:17.623Z,5.80
2023-02-14T09:33:45.464Z,5.50
2023-02-14T09:36:21.280Z,5.60
2023-02-14T09:38:48.212Z,5.80
2023-02-14T09:41:38.010Z,5.60
2023-02-14T09:44:08.149Z,5.80
2023-02-14T09:46:40.743Z,6.10
2023-02-14T09:49:09.296Z,6.40
2023-02-14T09:51:46.591Z,6.40
2023-02-14T09:54:14.871Z,6.40
2023-02-14T09:56:52.084Z,6.20
2023-02-14T09:59:48.584Z,6.20
2023-02-14T10:02:19.440Z,6.40
2023-02-14T10:04:52.364Z,6.50
2023-02-14T10:07:31.960Z,6.60
2023-02-14T10:09:58.795Z,7.00
2023-02-14T10:12:32.137Z,7.00
2023-02-14T10:15:00.921Z,6.90
2023-02-14T10:17:40.060Z,7.40
2023-02-14T10:20:23.392Z,7.60
2023-02-14T10:23:03.334Z,7.40
2023-02-14T10:25:44.201Z,7.50
2023-02-14T10:28:15.781Z,7.50
2023-02-14T10:30:50.100Z,7.70
2023-02-14T10:33:18.987Z,7.80
2023-02-14T10:35:49.679Z,8.00
2023-02-14T10:39:00.735Z,7.80
2023-02-14T10:41:53.367Z,7.90
2023-02-14T10:44:23.094Z,7.80
2023-02-14T10:47:05.075Z,8.10
2023-02-14T10:49:35.437Z,8.20
2023-02-14T10:52:08.381Z,8.10
2023-02-14T10:54:43.876Z,8.20
2023-02-14T10:57:27.403Z,8.30
2023-02-14T11:00:02.481Z,8.30
2023-02-14T11:02:46.288Z,8.40
2023-02-14T11:05:36.226Z,8.40
2023-02-14T11:08:14.733Z,8.50
2023-02-14T11:10:42.029Z,8.60
2023-02-14T11:13:28.970Z,8.60
2023-02-14T11:15:59.872Z,8.70
2023-02-14T11:18:35.975Z,8.80
2023-02-14T11:21:07.909Z,9.00
2023-02-14T11:23:42.819Z,9.00
2023-02-14T11:26:31.642Z,9.10
2023-02-14T11:29:06.191Z,9.00
2023-02-14T11:31:34.964Z,9.20
2023-02-14T11:34:04.995Z,9.20
2023-02-14T11:36:33.818Z,9.20
2023-02-14T11:39:30.803Z,9.30
2023-02-14T11:42:05.006Z,9.40
2023-02-14T11:44:33.421Z,9.40
2023-02-14T11:47:20.617Z,9.50
2023-02-14T11:50:01.278Z,9.30
2023-02-14T11:52:29.931Z,9.20
2023-02-14T11:54:57.957Z,9.40
2023-02-14T11:57:33.998Z,9.40
2023-02-14T12:00:01.842Z,9.30
2023-02-14T12:02:43.805Z,9.40
2023-02-14T12:05:36.905Z,9.40
2023-02-14T12:08:05.699Z,9.40
2023-02-14T12:10:35.318Z,9.40
2023-02-14T12:13:10.033Z,9.20
2023-02-14T12:15:37.847Z,9.30
2023-02-14T12:18:23.389Z,9.40
2023-02-14T12:20:59.192Z,9.50
2023-02-14T12:23:56.264Z,9.60
2023-02-14T12:26:29.013Z,9.60
2023-02-14T12:29:05.094Z,9.50
2023-02-14T12:31:32.828Z,9.60
2023-02-14T12:33:59.845Z,9.60
2023-02-14T12:36:52.644Z,9.70
2023-02-14T12:39:26.210Z,9.70
2023-02-14T12:42:02.934Z,9.70
2023-02-14T12:45:09.839Z,9.80
2023-02-14T12:47:46.933Z,9.80
2023-02-14T12:50:50.804Z,9.80
2023-02-14T12:53:36.753Z,9.70
2023-02-14T12:56:28.741Z,9.90
2023-02-14T12:59:14.115Z,9.80
2023-02-14T13:01:59.841Z,9.90
2023-02-14T13:05:09.233Z,9.90
2023-02-14T13:07:45.299Z,9.90
2023-02-14T13:10:32.588Z,10.00
2023-02-14T13:13:04.672Z,10.20
2023-02-14T13:15:31.848Z,10.50
2023-02-14T13:18:20.979Z,10.20
2023-02-14T13:20:53.556Z,10.10
2023-02-14T13:23:38.602Z,10.30
2023-02-14T13:26:08.824Z,10.40
2023-02-14T13:28:36.511Z,10.30
2023-02-14T13:31:03.968Z,10.50
2023-02-14T13:33:38.491Z,10.60
2023-02-14T13:36:10.878Z,10.70
2023-02-14T13:38:49.839Z,10.50
2023-02-14T13:41:17.682Z,10.60
2023-02-14T13:43:47.599Z,10.50
2023-02-14T13:46:16.793Z,10.60
2023-02-14T13:48:43.937Z,10.50
2023-02-14T13:51:10.960Z,10.30
2023-02-14T13:53:45.433Z,10.40
2023-02-14T13:56:12.210Z,10.70
2023-02-14T13:58:55.214Z,11.00
2023-02-14T14:01:50.308Z,10.70
2023-02-14T14:04:26.231Z,11.00
2023-02-14T14:07:05.340Z,11.00
2023-02-14T14:09:44.327Z,11.00
2023-02-14T14:12:26.504Z,11.10
2023-02-14T14:15:10.823Z,11.20
2023-02-14T14:17:39.219Z,11.30
2023-02-14T14:20:21.368Z,11.20
2023-02-14T14:22:48.541Z,11.10
2023-02-14T14:25:29.941Z,11.10
2023-02-14T14:27:56.847Z,11.10
2023-02-14T14:30:26.087Z,11.20
2023-02-14T14:32:53.069Z,11.20
2023-02-14T14:35:24.750Z,11.30
2023-02-14T14:37:58.687Z,11.30
2023-02-14T14:40:32.381Z,11.40
2023-02-14T14:43:05.885Z,11.40
2023-02-14T14:45:32.933Z,11.50
2023-02-14T14:48:00.832Z,11.50
2023-02-14T14:50:31.862Z,11.40
2023-02-14T14:53:02.923Z,11.30
2023-02-14T14:55:32.296Z,11.50
2023-02-14T14:58:03.893Z,11.40
2023-02-14T15:00:34.574Z,11.50
2023-02-14T15:03:15.062Z,11.50
2023-02-14T15:05:44.242Z,11.50
2023-02-14T15:08:14.238Z,11.40
2023-02-14T15:10:41.293Z,11.40
2023-02-14T15:13:29.848Z,11.40
2023-02-14T15:15:56.778Z,11.40
2023-02-14T15:18:23.717Z,11.30
2023-02-14T15:20:51.120Z,11.20
2023-02-14T15:23:22.624Z,11.10
2023-02-14T15:25:49.900Z,11.20
2023-02-14T15:28:34.121Z,11.20
2023-02-14T15:31:05.808Z,11.20
2023-02-14T15:33:33.592Z,11.10
2023-02-14T15:36:06.767Z,10.90
2023-02-14T15:38:35.751Z,10.90
2023-02-14T15:41:02.890Z,10.80
2023-02-14T15:43:32.118Z,10.70
2023-02-14T15:46:20.003Z,10.60
2023-02-14T15:48:46.971Z,10.60
2023-02-14T15:51:21.216Z,10.50
2023-02-14T15:54:01.606Z,10.40
2023-02-14T15:56:30.446Z,10.40
2023-02-14T15:59:20.880Z,10.30
2023-02-14T16:02:01.405Z,10.20
2023-02-14T16:04:30.566Z,10.20
2023-02-14T16:07:21.720Z,10.10
2023-02-14T16:09:49.757Z,10.00
2023-02-14T16:12:36.789Z,9.90
2023-02-14T16:15:19.181Z,9.90
2023-02-14T16:17:46.159Z,9.80
2023-02-14T16:20:38.552Z,9.80
2023-02-14T16:23:22.059Z,9.80
2023-02-14T16:25:49.212Z,9.70
2023-02-14T16:28:16.246Z,9.70
2023-02-14T16:30:45.454Z,9.60
2023-02-14T16:33:26.076Z,9.60
2023-02-14T16:35:53.580Z,9.60
2023-02-14T16:38:22.036Z,9.50
2023-02-14T16:40:51.528Z,9.40
2023-02-14T16:43:21.970Z,9.40
2023-02-14T16:45:49.087Z,9.40
2023-02-14T16:48:16.179Z,9.30
2023-02-14T16:50:43.983Z,9.30
2023-02-14T16:53:27.859Z,9.20
2023-02-14T16:55:55.817Z,9.10
2023-02-14T16:58:24.768Z,9.00
2023-02-14T17:00:51.783Z,8.90
2023-02-14T17:03:19.313Z,8.90
2023-02-14T17:05:49.251Z,8.90
2023-02-14T17:08:16.322Z,8.90
2023-02-14T17:10:43.246Z,8.80
2023-02-14T17:13:10.167Z,8.80
2023-02-14T17:15:38.104Z,8.60
2023-02-14T17:18:08.056Z,8.60
2023-02-14T17:20:34.982Z,8.60
2023-02-14T17:23:01.997Z,8.60
2023-02-14T17:25:29.084Z,8.50
2023-02-14T17:27:56.562Z,8.50
2023-02-14T17:30:23.829Z,8.50
2023-02-14T17:32:50.916Z,8.50
2023-02-14T17:35:19.016Z,8.40
2023-02-14T17:37:45.958Z,8.40
2023-02-14T17:40:13.395Z,8.30
2023-02-14T17:42:41.078Z,8.30
2023-02-14T17:45:11.958Z,8.20
2023-02-14T17:47:39.944Z,8.20
2023-02-14T17:50:07.707Z,8.20
2023-02-14T17:52:34.673Z,8.20
2023-02-14T17:55:01.640Z,8.20
2023-02-14T17:57:28.519Z,8.10
2023-02-14T17:59:55.532Z,8.20
2023-02-14T18:02:22.532Z,8.20
2023-02-14T18:04:49.435Z,8.10
2023-02-14T18:07:16.635Z,8.10
2023-02-14T18:09:43.532Z,8.00
2023-02-14T18:12:14.779Z,7.80
2023-02-14T18:14:42.311Z,7.80
2023-02-14T18:17:09.443Z,7.70
2023-02-14T18:19:36.697Z,7.70
2023-02-14T18:22:03.622Z,7.70
2023-02-14T18:24:30.535Z,7.70
2023-02-14T18:26:57.502Z,7.70
2023-02-14T18:29:24.570Z,7.70
2023-02-14T18:31:51.686Z,7.70
2023-02-14T18:34:19.078Z,7.70
2023-02-14T18:36:46.103Z,7.60
2023-02-14T18:39:13.031Z,7.60
2023-02-14T18:41:39.963Z,7.60
2023-02-14T18:44:07.324Z,7.60
2023-02-14T18:46:35.702Z,7.60
2023-02-14T18:49:04.535Z,7.50
2023-02-14T18:51:33.713Z,7.60
2023-02-14T18:54:04.649Z,7.50
2023-02-14T18:56:33.427Z,7.50
2023-02-14T18:59:02.349Z,7.40
2023-02-14T19:01:31.578Z,7.40
2023-02-14T19:04:01.571Z,7.40
2023-02-14T19:06:30.052Z,7.10
2023-02-14T19:08:57.445Z,7.10
2023-02-14T19:11:26.245Z,7.20
2023-02-14T19:13:57.758Z,7.30
2023-02-14T19:16:27.234Z,7.30
2023-02-14T19:18:54.592Z,7.30
2023-02-14T19:21:26.823Z,7.20
2023-02-14T19:23:55.001Z,7.20
2023-02-14T19:26:24.424Z,7.10
2023-02-14T19:28:55.633Z,7.20
2023-02-14T19:31:22.795Z,7.10
2023-02-14T19:33:50.282Z,7.00
2023-02-14T19:36:18.884Z,7.00
2023-02-14T19:38:50.259Z,6.90
2023-02-14T19:41:30.595Z,6.90
2023-02-14T19:43:58.414Z,6.80
2023-02-14T19:46:25.739Z,6.80
2023-02-14T19:48:52.664Z,6.70
2023-02-14T19:51:25.854Z,6.70
2023-02-14T19:53:53.882Z,6.60
2023-02-14T19:56:21.604Z,6.50
2023-02-14T19:58:49.685Z,6.50
2023-02-14T20:01:30.127Z,6.40
2023-02-14T20:03:57.155Z,6.40
2023-02-14T20:06:25.132Z,6.30
2023-02-14T20:08:52.188Z,6.20
2023-02-14T20:11:42.431Z,6.30
2023-02-14T20:14:09.714Z,6.30
2023-02-14T20:16:37.356Z,6.30
2023-02-14T20:19:12.043Z,6.20
2023-02-14T20:21:41.926Z,6.20
2023-02-14T20:24:09.269Z,6.10
2023-02-14T20:26:37.442Z,6.10
2023-02-14T20:29:05.107Z,6.10
2023-02-14T20:31:35.221Z,6.10
2023-02-14T20:34:02.550Z,6.10
2023-02-14T20:36:29.624Z,6.00
2023-02-14T20:38:57.267Z,6.00
2023-02-14T20:41:24.607Z,6.00
2023-02-14T20:43:51.765Z,5.90
2023-02-14T20:46:19.110Z,5.90
2023-02-14T20:48:46.067Z,5.80
2023-02-14T20:51:18.504Z,5.90
2023-02-14T20:53:45.859Z,5.90
2023-02-14T20:56:13.844Z,5.80
2023-02-14T20:58:41.890Z,5.80
2023-02-14T21:01:15.614Z,5.70
2023-02-14T21:03:43.616Z,5.80
2023-02-14T21:06:13.811Z,5.70
2023-02-14T21:08:44.489Z,5.70
2023-02-14T21:11:13.475Z,5.60
2023-02-14T21:13:40.642Z,5.60
2023-02-14T21:16:09.645Z,5.60
2023-02-14T21:18:37.878Z,5.50
2023-02-14T21:21:36.168Z,5.50
2023-02-14T21:24:14.731Z,5.40
2023-02-14T21:26:42.201Z,5.40
2023-02-14T21:29:09.453Z,5.30
2023-02-14T21:31:36.724Z,5.20
2023-02-14T21:34:04.893Z,5.20
2023-02-14T21:36:33.066Z,5.30
2023-02-14T21:39:00.152Z,5.30
2023-02-14T21:41:28.914Z,5.20
2023-02-14T21:43:56.586Z,5.20
2023-02-14T21:46:29.462Z,5.20
2023-02-14T21:49:19.722Z,5.20
2023-02-14T21:51:46.996Z,5.10
2023-02-14T21:54:14.455Z,5.10
2023-02-14T21:56:44.671Z,5.10
2023-02-14T21:59:12.352Z,5.10
2023-02-14T22:01:42.225Z,5.10
2023-02-14T22:04:11.775Z,5.20
2023-02-14T22:06:41.794Z,5.10
2023-02-14T22:09:10.895Z,5.00
2023-02-14T22:11:38.246Z,5.00
2023-02-14T22:14:05.214Z,5.10
2023-02-14T22:16:32.102Z,5.00
2023-02-14T22:18:59.097Z,5.00
2023-02-14T22:21:26.784Z,4.90
2023-02-14T22:23:54.517Z,4.80
2023-02-14T22:26:25.875Z,4.70
2023-02-14T22:28:56.925Z,4.60
2023-02-14T22:31:24.759Z,4.60
2023-02-14T22:33:51.806Z,4.60
2023-02-14T22:36:19.186Z,4.50
2023-02-14T22:38:46.120Z,4.50
2023-02-14T22:41:21.129Z,4.50
2023-02-14T22:43:48.738Z,4.50
2023-02-14T22:46:19.816Z,4.50
2023-02-14T22:48:48.147Z,4.50
2023-02-14T22:51:26.345Z,4.40
2023-02-14T22:53:57.172Z,4.40
2023-02-14T22:56:28.976Z,4.50
2023-02-14T22:59:01.078Z,4.30
2023-02-14T23:01:28.484Z,4.40
2023-02-14T23:03:56.853Z,4.40
2023-02-14T23:06:25.008Z,4.40
2023-02-14T23:08:52.305Z,4.30
2023-02-14T23:11:24.092Z,4.40
2023-02-14T23:14:09.639Z,4.40
2023-02-14T23:16:54.928Z,4.40
2023-02-14T23:19:43.027Z,4.40
2023-02-14T23:22:14.283Z,4.30
2023-02-14T23:24:41.860Z,4.30
2023-02-14T23:27:09.300Z,4.30
2023-02-14T23:29:36.705Z,4.20
2023-02-14T23:32:05.044Z,4.20
2023-02-14T23:34:33.618Z,4.20
2023-02-14T23:37:00.660Z,4.10
2023-02-14T23:39:27.613Z,4.00
2023-02-14T23:41:55.297Z,3.90
2023-02-14T23:44:23.852Z,3.90
2023-02-14T23:46:52.809Z,4.00
2023-02-14T23:49:19.962Z,4.00
2023-02-14T23:51:47.750Z,4.10
2023-02-14T23:54:15.053Z,4.10
2023-02-14T23:56:42.460Z,4.00
2023-02-14T23:59:09.847Z,3.90
